Time;durP1;ratioP1;P1;durP2;ratioP2;P2;SDS_P1;SDS_P2;PMS_P1;PMS_P2;Temp;Humidity;BMP_temperature;BMP_pressure;BME280_temperature;BME280_humidity;BME280_pressure;Samples;Min_cycle;Max_cycle;Signal;HPM_P1;HPM_P2
2022/05/04 00:00:56;;;;;;;6.85;2.40;;;;;;;;;;5030021;28;20053;-82
2022/05/04 00:03:24;;;;;;;8.90;2.60;;;;;;;;;;5052197;28;20134;-81
2022/05/04 00:05:52;;;;;;;7.45;2.45;;;;;;;;;;5054820;28;20080;-81
2022/05/04 00:08:20;;;;;;;6.63;2.55;;;;;;;;;;5037595;28;20073;-81
2022/05/04 00:10:48;;;;;;;5.43;1.80;;;;;;;;;;5035389;28;20211;-85
2022/05/04 00:13:16;;;;;;;11.02;2.30;;;;;;;;;;5021410;28;20051;-85
2022/05/04 00:15:44;;;;;;;7.30;2.17;;;;;;;;;;5018618;28;20052;-85
2022/05/04 00:18:12;;;;;;;10.20;2.55;;;;;;;;;;5049307;28;20749;-85
2022/05/04 00:20:41;;;;;;;10.63;2.60;;;;;;;;;;5053884;28;20059;-83
2022/05/04 00:23:08;;;;;;;8.75;2.35;;;;;;;;;;5048986;28;20049;-82
2022/05/04 00:25:36;;;;;;;5.72;2.35;;;;;;;;;;5039492;28;20041;-86
2022/05/04 00:28:04;;;;;;;4.90;2.15;;;;;;;;;;4993959;28;20605;-86
2022/05/04 00:30:32;;;;;;;8.63;2.25;;;;;;;;;;5021005;28;20045;-82
2022/05/04 00:33:00;;;;;;;6.22;2.25;;;;;;;;;;5034359;28;20061;-85
2022/05/04 00:35:28;;;;;;;7.85;2.60;;;;;;;;;;5036701;28;20064;-85
2022/05/04 00:37:56;;;;;;;11.82;3.03;;;;;;;;;;5071707;28;20080;-85
2022/05/04 00:40:24;;;;;;;8.63;2.30;;;;;;;;;;5050138;28;20052;-85
2022/05/04 00:42:52;;;;;;;6.43;2.65;;;;;;;;;;5019437;28;20053;-81
2022/05/04 00:45:21;;;;;;;6.47;2.50;;;;;;;;;;5066625;28;20036;-81
2022/05/04 00:47:48;;;;;;;4.07;2.17;;;;;;;;;;5052626;28;20060;-81
2022/05/04 00:50:16;;;;;;;8.00;2.70;;;;;;;;;;5038745;28;21646;-81
2022/05/04 00:52:45;;;;;;;6.50;2.60;;;;;;;;;;5054886;28;20053;-85
2022/05/04 00:55:16;;;;;;;12.02;2.53;;;;;;;;;;5051190;28;20049;-85
2022/05/04 01:00:33;;;;;;;8.52;2.78;;;;;;;;;;5067077;28;20049;-82
2022/05/04 01:03:00;;;;;;;8.82;2.50;;;;;;;;;;5043103;28;20053;-81
2022/05/04 01:05:28;;;;;;;5.95;2.45;;;;;;;;;;5053303;28;20661;-81
2022/05/04 01:07:58;;;;;;;6.47;2.35;;;;;;;;;;5049603;28;20112;-92
2022/05/04 01:10:28;;;;;;;11.25;2.85;;;;;;;;;;5047394;28;20045;-92
2022/05/04 01:13:10;;;;;;;7.00;2.33;;;;;;;;;;5035584;28;20481;-92
2022/05/04 01:15:57;;;;;;;7.00;2.53;;;;;;;;;;5048087;28;20396;-92
2022/05/04 01:18:38;;;;;;;8.32;2.40;;;;;;;;;;5047526;28;20049;-82
2022/05/04 01:21:06;;;;;;;8.05;2.40;;;;;;;;;;5033639;28;20135;-85
2022/05/04 01:23:35;;;;;;;5.60;2.72;;;;;;;;;;5037255;28;20056;-85
2022/05/04 01:26:04;;;;;;;7.45;2.67;;;;;;;;;;5048875;28;20488;-85
2022/05/04 01:28:32;;;;;;;7.35;2.70;;;;;;;;;;5055212;28;20049;-86
2022/05/04 01:31:00;;;;;;;6.75;2.85;;;;;;;;;;5076315;28;20068;-84
2022/05/04 01:33:28;;;;;;;8.68;2.50;;;;;;;;;;5018924;28;20072;-84
2022/05/04 01:35:56;;;;;;;5.78;2.65;;;;;;;;;;5066212;28;20049;-85
2022/05/04 01:38:24;;;;;;;8.15;2.75;;;;;;;;;;5038561;28;20140;-85
2022/05/04 01:40:52;;;;;;;7.70;2.92;;;;;;;;;;5052001;28;20518;-81
2022/05/04 01:43:20;;;;;;;9.07;2.50;;;;;;;;;;5036527;28;20053;-81
2022/05/04 01:45:48;;;;;;;6.35;2.25;;;;;;;;;;5016375;28;20049;-81
2022/05/04 01:48:16;;;;;;;7.40;2.53;;;;;;;;;;5031465;28;20060;-80
2022/05/04 01:50:44;;;;;;;7.22;2.40;;;;;;;;;;5042731;28;20056;-93
2022/05/04 01:53:59;;;;;;;7.53;2.40;;;;;;;;;;5020454;28;20048;-93
2022/05/04 01:57:49;;;;;;;6.50;2.63;;;;;;;;;;4987817;28;20059;-92
2022/05/04 02:01:15;;;;;;;4.45;2.40;;;;;;;;;;4986731;28;20038;-84
2022/05/04 02:03:42;;;;;;;7.70;2.53;;;;;;;;;;4976090;28;20112;-85
2022/05/04 02:06:10;;;;;;;7.28;3.00;;;;;;;;;;4976106;28;20537;-85
2022/05/04 02:08:38;;;;;;;11.57;4.10;;;;;;;;;;4988380;28;20046;-85
2022/05/04 02:11:06;;;;;;;10.57;3.25;;;;;;;;;;4992265;28;20047;-82
2022/05/04 02:13:34;;;;;;;8.73;2.40;;;;;;;;;;4983920;28;20050;-82
2022/05/04 02:16:05;;;;;;;9.90;2.80;;;;;;;;;;5003619;28;20109;-82
2022/05/04 02:18:34;;;;;;;8.93;2.88;;;;;;;;;;4969987;28;20078;-82
2022/05/04 02:21:02;;;;;;;12.30;2.67;;;;;;;;;;4996203;28;20055;-85
2022/05/04 02:23:30;;;;;;;6.28;2.58;;;;;;;;;;5005617;28;20077;-85
2022/05/04 02:25:58;;;;;;;9.30;2.70;;;;;;;;;;5008094;28;20050;-85
2022/05/04 02:28:26;;;;;;;7.68;2.60;;;;;;;;;;5017097;28;20041;-85
2022/05/04 02:30:54;;;;;;;7.45;2.30;;;;;;;;;;5035652;28;20059;-85
2022/05/04 02:33:22;;;;;;;8.32;3.05;;;;;;;;;;5035035;28;20501;-85
2022/05/04 02:40:37;;;;;;;8.98;2.97;;;;;;;;;;5029460;28;20040;-94
2022/05/04 02:43:19;;;;;;;7.43;2.90;;;;;;;;;;5006973;28;20508;-95
2022/05/04 02:46:23;;;;;;;6.55;2.72;;;;;;;;;;5028389;28;20049;-94
2022/05/04 02:49:20;;;;;;;8.10;2.88;;;;;;;;;;5000591;28;20136;-95
2022/05/04 02:52:28;;;;;;;6.10;2.53;;;;;;;;;;5020667;28;20053;-82
2022/05/04 02:54:56;;;;;;;8.00;2.25;;;;;;;;;;4997773;28;20046;-81
2022/05/04 02:57:24;;;;;;;6.32;2.53;;;;;;;;;;5027785;28;20064;-81
2022/05/04 02:59:52;;;;;;;5.55;2.22;;;;;;;;;;5028618;28;20860;-81
2022/05/04 03:02:29;;;;;;;7.10;2.78;;;;;;;;;;5012083;28;20564;-85
2022/05/04 03:05:00;;;;;;;4.82;2.60;;;;;;;;;;5011611;28;20042;-85
2022/05/04 03:12:13;;;;;;;10.45;2.53;;;;;;;;;;5112760;22;20078;-92
2022/05/04 03:14:40;;;;;;;5.63;2.45;;;;;;;;;;5079044;28;20132;-91
2022/05/04 03:17:08;;;;;;;6.05;2.70;;;;;;;;;;5080594;28;20113;-91
2022/05/04 03:19:36;;;;;;;8.68;2.55;;;;;;;;;;5076933;28;20048;-92
2022/05/04 03:22:05;;;;;;;5.80;2.30;;;;;;;;;;5081844;28;20044;-91
2022/05/04 03:24:32;;;;;;;8.05;3.30;;;;;;;;;;5068800;28;20533;-91
2022/05/04 03:27:00;;;;;;;9.05;2.58;;;;;;;;;;5072742;28;20052;-92
2022/05/04 03:29:28;;;;;;;8.35;2.80;;;;;;;;;;5057663;28;20044;-92
2022/05/04 03:31:56;;;;;;;10.15;3.10;;;;;;;;;;5060038;28;20533;-91
2022/05/04 03:34:25;;;;;;;9.85;3.22;;;;;;;;;;5078023;28;20043;-91
2022/05/04 03:36:55;;;;;;;5.75;3.08;;;;;;;;;;5058931;28;20044;-92
2022/05/04 03:39:29;;;;;;;10.32;3.45;;;;;;;;;;5059990;28;20084;-91
2022/05/04 03:41:57;;;;;;;7.25;2.67;;;;;;;;;;5052291;28;20043;-91
2022/05/04 03:44:24;;;;;;;12.80;3.53;;;;;;;;;;5069769;28;20040;-92
2022/05/04 03:46:53;;;;;;;5.20;2.88;;;;;;;;;;5063919;28;20043;-92
2022/05/04 03:49:22;;;;;;;8.35;2.92;;;;;;;;;;5060552;28;20071;-90
2022/05/04 03:51:51;;;;;;;8.70;3.05;;;;;;;;;;5070689;28;20510;-92
2022/05/04 03:54:19;;;;;;;5.38;3.15;;;;;;;;;;5072830;28;20053;-91
2022/05/04 03:56:46;;;;;;;6.28;2.72;;;;;;;;;;5073260;28;20050;-92
2022/05/04 03:59:14;;;;;;;6.70;2.88;;;;;;;;;;5073259;28;20143;-92
2022/05/04 04:01:42;;;;;;;10.48;3.72;;;;;;;;;;5077757;28;20055;-92
2022/05/04 04:04:11;;;;;;;10.05;3.47;;;;;;;;;;5075179;28;20048;-91
2022/05/04 04:06:40;;;;;;;7.82;3.75;;;;;;;;;;5070377;28;20041;-92
2022/05/04 04:09:08;;;;;;;13.95;3.55;;;;;;;;;;5064600;28;20055;-92
2022/05/04 04:11:36;;;;;;;6.82;3.72;;;;;;;;;;5061205;28;20056;-91
2022/05/04 04:14:04;;;;;;;10.25;4.10;;;;;;;;;;5060157;28;20044;-92
2022/05/04 04:16:32;;;;;;;9.25;3.35;;;;;;;;;;5060433;28;20040;-92
2022/05/04 04:19:00;;;;;;;9.05;3.70;;;;;;;;;;5068242;28;20052;-91
2022/05/04 04:24:14;;;;;;;8.43;3.78;;;;;;;;;;5073494;28;20076;-91
2022/05/04 04:26:42;;;;;;;9.18;3.47;;;;;;;;;;5050031;28;20076;-92
2022/05/04 04:29:11;;;;;;;6.75;2.80;;;;;;;;;;5071257;28;20111;-92
2022/05/04 04:31:38;;;;;;;8.30;3.00;;;;;;;;;;5073630;28;20135;-91
2022/05/04 04:34:07;;;;;;;5.70;2.80;;;;;;;;;;5071419;28;20143;-92
2022/05/04 04:36:43;;;;;;;12.48;3.08;;;;;;;;;;5070755;28;20058;-91
2022/05/04 04:39:10;;;;;;;9.10;3.08;;;;;;;;;;5070929;28;20512;-91
2022/05/04 04:41:38;;;;;;;9.60;3.45;;;;;;;;;;5069180;28;20049;-92
2022/05/04 04:44:06;;;;;;;8.02;3.25;;;;;;;;;;5069944;28;20048;-92
2022/05/04 04:46:34;;;;;;;6.97;3.53;;;;;;;;;;5052370;28;20611;-92
2022/05/04 04:49:02;;;;;;;12.68;3.70;;;;;;;;;;5061846;28;20082;-92
2022/05/04 04:51:30;;;;;;;7.60;3.33;;;;;;;;;;5072165;28;20052;-92
2022/05/04 04:53:58;;;;;;;8.25;3.72;;;;;;;;;;5060381;28;20124;-92
2022/05/04 04:56:26;;;;;;;8.18;3.75;;;;;;;;;;5079903;28;20504;-92
2022/05/04 04:58:54;;;;;;;7.68;3.10;;;;;;;;;;5077635;28;20056;-92
2022/05/04 05:01:22;;;;;;;8.75;3.90;;;;;;;;;;5054236;28;20122;-91
2022/05/04 05:03:50;;;;;;;10.20;3.97;;;;;;;;;;5069527;28;20635;-92
2022/05/04 05:06:19;;;;;;;7.45;3.42;;;;;;;;;;5084551;28;20122;-92
2022/05/04 05:08:48;;;;;;;13.55;4.13;;;;;;;;;;5068587;28;20057;-92
2022/05/04 05:11:16;;;;;;;10.63;4.40;;;;;;;;;;5071594;28;20154;-92
2022/05/04 05:16:34;;;;;;;7.13;3.95;;;;;;;;;;5055301;28;20605;-93
2022/05/04 05:19:02;;;;;;;10.50;3.97;;;;;;;;;;5038628;28;20075;-92
2022/05/04 05:21:31;;;;;;;8.02;4.13;;;;;;;;;;5054871;28;20073;-93
2022/05/04 05:23:59;;;;;;;13.48;4.03;;;;;;;;;;5050978;28;20698;-91
2022/05/04 05:26:27;;;;;;;8.15;4.07;;;;;;;;;;5034553;28;20045;-93
2022/05/04 05:28:55;;;;;;;13.38;4.00;;;;;;;;;;5055375;28;20045;-94
2022/05/04 05:31:23;;;;;;;6.57;3.50;;;;;;;;;;5035078;28;20056;-94
2022/05/04 05:33:51;;;;;;;7.93;4.03;;;;;;;;;;5050692;28;20059;-91
2022/05/04 05:36:19;;;;;;;9.30;4.10;;;;;;;;;;5054698;28;20037;-92
2022/05/04 05:38:47;;;;;;;15.23;4.72;;;;;;;;;;5053004;28;20057;-92
2022/05/04 05:41:15;;;;;;;15.40;4.63;;;;;;;;;;5053101;28;20071;-92
2022/05/04 05:43:43;;;;;;;9.63;3.80;;;;;;;;;;5052544;28;20076;-92
2022/05/04 05:46:11;;;;;;;20.40;4.55;;;;;;;;;;5049812;28;20041;-92
2022/05/04 05:48:39;;;;;;;12.07;4.70;;;;;;;;;;5051652;28;20420;-92
2022/05/04 05:51:07;;;;;;;14.13;4.53;;;;;;;;;;5053917;28;20140;-92
2022/05/04 05:53:35;;;;;;;12.27;4.22;;;;;;;;;;5066400;28;20044;-92
2022/05/04 05:56:03;;;;;;;9.10;3.90;;;;;;;;;;5075169;28;20044;-92
2022/05/04 05:58:31;;;;;;;9.90;4.18;;;;;;;;;;5062171;28;20087;-92
2022/05/04 06:00:59;;;;;;;16.88;3.92;;;;;;;;;;5076914;28;20053;-92
2022/05/04 06:03:28;;;;;;;9.65;3.75;;;;;;;;;;5080254;28;20059;-92
2022/05/04 06:05:55;;;;;;;11.43;3.90;;;;;;;;;;5079043;28;20456;-92
2022/05/04 06:08:23;;;;;;;11.05;3.60;;;;;;;;;;5068233;28;20044;-92
2022/05/04 06:10:51;;;;;;;7.38;3.20;;;;;;;;;;5074297;28;20128;-93
2022/05/04 06:13:19;;;;;;;9.48;3.13;;;;;;;;;;5075415;28;20516;-92
2022/05/04 06:15:47;;;;;;;6.55;2.70;;;;;;;;;;5062489;28;20055;-91
2022/05/04 06:18:15;;;;;;;6.65;2.20;;;;;;;;;;5080537;28;20048;-92
2022/05/04 06:20:43;;;;;;;10.10;2.95;;;;;;;;;;5076147;28;20076;-92
2022/05/04 06:23:11;;;;;;;7.80;1.90;;;;;;;;;;5080204;28;20066;-93
2022/05/04 06:25:41;;;;;;;4.80;2.15;;;;;;;;;;5078450;28;20075;-93
2022/05/04 06:28:09;;;;;;;8.38;2.00;;;;;;;;;;5076528;28;20068;-93
2022/05/04 06:36:09;;;;;;;4.03;1.98;;;;;;;;;;5067099;28;20044;-93
2022/05/04 06:38:37;;;;;;;8.40;2.00;;;;;;;;;;5062837;28;20417;-92
2022/05/04 06:41:05;;;;;;;5.18;1.50;;;;;;;;;;5054313;28;20063;-92
2022/05/04 06:43:32;;;;;;;5.85;2.20;;;;;;;;;;5070952;28;20052;-93
2022/05/04 06:46:00;;;;;;;12.13;2.70;;;;;;;;;;5069639;28;20044;-92
2022/05/04 06:48:27;;;;;;;7.15;1.70;;;;;;;;;;5076251;28;20106;-92
2022/05/04 06:50:55;;;;;;;3.42;1.40;;;;;;;;;;5067952;28;20048;-93
2022/05/04 06:53:23;;;;;;;4.18;1.73;;;;;;;;;;5075154;28;20044;-92
2022/05/04 06:55:51;;;;;;;5.88;1.60;;;;;;;;;;5061787;28;20063;-92
2022/05/04 06:58:19;;;;;;;10.73;1.63;;;;;;;;;;5057198;28;20041;-92
2022/05/04 07:00:47;;;;;;;9.18;1.77;;;;;;;;;;5078488;28;20044;-92
2022/05/04 07:03:15;;;;;;;3.50;1.30;;;;;;;;;;5062144;28;20686;-92
2022/05/04 07:05:44;;;;;;;11.15;1.70;;;;;;;;;;5051846;28;20052;-93
2022/05/04 07:08:11;;;;;;;7.60;1.60;;;;;;;;;;5063288;28;20041;-92
2022/05/04 07:10:40;;;;;;;6.90;1.88;;;;;;;;;;5077851;28;20048;-93
2022/05/04 07:13:09;;;;;;;4.85;1.25;;;;;;;;;;5071494;28;20126;-93
2022/05/04 07:15:37;;;;;;;8.48;1.52;;;;;;;;;;5072671;28;20536;-93
2022/05/04 07:18:05;;;;;;;4.82;1.65;;;;;;;;;;5071412;28;20051;-93
2022/05/04 07:20:33;;;;;;;5.90;1.65;;;;;;;;;;5070195;28;20124;-92
2022/05/04 07:23:01;;;;;;;4.40;1.40;;;;;;;;;;5082959;28;20051;-92
2022/05/04 07:25:31;;;;;;;6.22;1.50;;;;;;;;;;5070449;28;20433;-92
2022/05/04 07:28:06;;;;;;;4.55;1.40;;;;;;;;;;5068465;28;20506;-93
2022/05/04 07:30:35;;;;;;;7.03;1.60;;;;;;;;;;5080911;28;20060;-93
2022/05/04 07:33:04;;;;;;;4.18;1.52;;;;;;;;;;5071271;28;20052;-93
2022/05/04 07:35:31;;;;;;;9.00;1.77;;;;;;;;;;5055395;28;20498;-93
2022/05/04 07:37:59;;;;;;;5.68;1.60;;;;;;;;;;5058833;28;20114;-92
2022/05/04 07:43:13;;;;;;;7.00;2.20;;;;;;;;;;5073356;28;20052;-92
2022/05/04 07:45:42;;;;;;;7.68;1.95;;;;;;;;;;5079913;28;20135;-93
2022/05/04 07:48:09;;;;;;;7.90;1.90;;;;;;;;;;5075840;28;20438;-93
2022/05/04 07:50:37;;;;;;;4.65;1.35;;;;;;;;;;5070361;28;20057;-93
2022/05/04 07:53:06;;;;;;;8.10;1.40;;;;;;;;;;5065641;28;20059;-93
2022/05/04 07:55:36;;;;;;;5.80;1.70;;;;;;;;;;5071934;28;20563;-92
2022/05/04 07:58:03;;;;;;;5.88;1.42;;;;;;;;;;5047903;28;20048;-93
2022/05/04 08:06:05;;;;;;;6.35;1.60;;;;;;;;;;5076728;28;20040;-93
2022/05/04 08:08:33;;;;;;;6.70;1.73;;;;;;;;;;5074338;28;20505;-93
2022/05/04 08:11:02;;;;;;;6.55;1.65;;;;;;;;;;5069340;28;20047;-93
2022/05/04 08:13:30;;;;;;;7.45;1.63;;;;;;;;;;5074059;28;20044;-93
2022/05/04 08:15:57;;;;;;;6.28;1.92;;;;;;;;;;5077888;28;20057;-93
2022/05/04 08:18:26;;;;;;;8.25;1.55;;;;;;;;;;5053702;28;20433;-92
2022/05/04 08:20:53;;;;;;;5.88;1.40;;;;;;;;;;5062880;28;20052;-93
2022/05/04 08:23:21;;;;;;;10.27;2.08;;;;;;;;;;5078669;28;20052;-93
2022/05/04 08:25:50;;;;;;;6.82;1.60;;;;;;;;;;5078067;28;20517;-93
2022/05/04 08:28:19;;;;;;;7.90;1.65;;;;;;;;;;5058703;28;20059;-93
2022/05/04 08:30:47;;;;;;;7.45;2.35;;;;;;;;;;5057887;28;20527;-93
2022/05/04 08:33:16;;;;;;;5.13;1.83;;;;;;;;;;5060878;28;20060;-93
2022/05/04 08:35:44;;;;;;;5.88;1.80;;;;;;;;;;5079799;28;20058;-93
2022/05/04 08:38:14;;;;;;;11.52;1.83;;;;;;;;;;5061278;28;20566;-93
2022/05/04 08:40:41;;;;;;;6.05;2.13;;;;;;;;;;5079185;28;20056;-93
2022/05/04 08:43:11;;;;;;;6.20;1.40;;;;;;;;;;5056028;28;20407;-93
2022/05/04 08:45:39;;;;;;;3.80;1.23;;;;;;;;;;5079478;28;20086;-93
2022/05/04 08:48:08;;;;;;;7.47;1.80;;;;;;;;;;5061886;28;20060;-93
2022/05/04 08:50:39;;;;;;;5.68;1.80;;;;;;;;;;5076174;28;20052;-93
2022/05/04 08:53:08;;;;;;;8.30;1.75;;;;;;;;;;5039855;28;20537;-94
2022/05/04 08:55:39;;;;;;;6.60;1.80;;;;;;;;;;5075447;28;20195;-93
2022/05/04 08:58:08;;;;;;;6.40;1.58;;;;;;;;;;5078981;28;20097;-93
2022/05/04 09:00:36;;;;;;;6.53;1.70;;;;;;;;;;5060762;28;20155;-93
2022/05/04 09:03:04;;;;;;;8.02;1.77;;;;;;;;;;5066311;28;20516;-93
2022/05/04 09:05:39;;;;;;;9.07;1.80;;;;;;;;;;5075322;28;20063;-93
2022/05/04 09:08:09;;;;;;;7.72;1.52;;;;;;;;;;5078654;28;20049;-93
2022/05/04 09:10:44;;;;;;;5.05;1.63;;;;;;;;;;5015542;28;20144;-93
2022/05/04 09:13:12;;;;;;;4.78;1.45;;;;;;;;;;5076149;28;20044;-93
2022/05/04 09:15:40;;;;;;;8.68;1.75;;;;;;;;;;5056836;28;20057;-93
2022/05/04 09:18:16;;;;;;;4.20;1.40;;;;;;;;;;5075915;28;20045;-93
2022/05/04 09:20:55;;;;;;;8.10;1.58;;;;;;;;;;5074752;28;20453;-93
2022/05/04 09:23:24;;;;;;;4.88;1.98;;;;;;;;;;5057657;28;20525;-93
2022/05/04 09:25:56;;;;;;;6.03;1.50;;;;;;;;;;5046682;28;20048;-93
2022/05/04 09:28:26;;;;;;;5.50;1.58;;;;;;;;;;5061956;28;20139;-93
2022/05/04 09:30:55;;;;;;;5.63;1.80;;;;;;;;;;5063232;28;20086;-94
2022/05/04 09:33:28;;;;;;;7.07;1.85;;;;;;;;;;5074863;28;20040;-93
2022/05/04 09:35:57;;;;;;;6.78;1.92;;;;;;;;;;5075092;28;20139;-93
2022/05/04 09:46:55;;;;;;;6.18;1.85;;;;;;;;;;5081734;28;20514;-93
2022/05/04 09:49:33;;;;;;;5.40;1.48;;;;;;;;;;5079351;28;20051;-93
2022/05/04 09:52:04;;;;;;;8.43;1.50;;;;;;;;;;5081676;28;20082;-94
2022/05/04 09:54:31;;;;;;;5.95;1.88;;;;;;;;;;5063049;28;20041;-93
2022/05/04 09:57:03;;;;;;;3.92;1.63;;;;;;;;;;5063428;28;20040;-93
2022/05/04 09:59:38;;;;;;;6.72;1.65;;;;;;;;;;5056890;28;20055;-93
2022/05/04 10:02:09;;;;;;;5.40;2.15;;;;;;;;;;5084331;28;20052;-93
2022/05/04 10:04:38;;;;;;;7.38;1.50;;;;;;;;;;5076429;28;20529;-93
2022/05/04 10:07:10;;;;;;;9.95;1.90;;;;;;;;;;5076310;28;20048;-93
2022/05/04 10:09:37;;;;;;;4.25;1.48;;;;;;;;;;5058542;28;20127;-93
2022/05/04 10:12:07;;;;;;;5.60;2.03;;;;;;;;;;5075789;28;20509;-93
2022/05/04 10:14:35;;;;;;;9.98;2.63;;;;;;;;;;5078235;28;20048;-93
2022/05/04 10:17:12;;;;;;;5.97;1.90;;;;;;;;;;5079496;28;20067;-93
2022/05/04 10:20:09;;;;;;;4.45;1.85;;;;;;;;;;5083517;28;20048;-93
2022/05/04 10:22:43;;;;;;;6.72;1.70;;;;;;;;;;5076145;28;20040;-93
2022/05/04 10:25:14;;;;;;;5.18;1.75;;;;;;;;;;5069657;28;20045;-93
2022/05/04 10:27:43;;;;;;;6.53;2.13;;;;;;;;;;5066479;28;20076;-93
2022/05/04 10:30:30;;;;;;;9.88;2.25;;;;;;;;;;5074053;28;20048;-93
2022/05/04 10:33:05;;;;;;;6.25;2.00;;;;;;;;;;5058978;28;20618;-93
2022/05/04 10:35:48;;;;;;;5.43;1.98;;;;;;;;;;5058528;28;20789;-93
2022/05/04 10:38:18;;;;;;;8.07;2.03;;;;;;;;;;5074591;28;20631;-93
2022/05/04 10:40:57;;;;;;;7.13;2.00;;;;;;;;;;5064480;28;20052;-94
2022/05/04 10:43:50;;;;;;;8.73;1.83;;;;;;;;;;5076751;28;20102;-93
2022/05/04 10:46:21;;;;;;;7.57;1.83;;;;;;;;;;5060978;28;22007;-93
2022/05/04 10:49:08;;;;;;;7.07;1.95;;;;;;;;;;5083620;28;20040;-93
2022/05/04 10:51:38;;;;;;;10.75;2.03;;;;;;;;;;5081253;28;20052;-94
2022/05/04 10:54:10;;;;;;;4.47;1.48;;;;;;;;;;5079794;28;20052;-93
2022/05/04 10:56:43;;;;;;;5.40;1.85;;;;;;;;;;5062044;28;20076;-93
2022/05/04 10:59:30;;;;;;;6.60;2.58;;;;;;;;;;5058369;28;20056;-93
2022/05/04 11:02:05;;;;;;;5.00;1.85;;;;;;;;;;5064504;28;20487;-93
2022/05/04 11:04:35;;;;;;;5.88;2.40;;;;;;;;;;5079514;28;20563;-93
2022/05/04 11:07:12;;;;;;;4.88;2.00;;;;;;;;;;5063484;28;20531;-93
2022/05/04 11:09:43;;;;;;;6.18;2.00;;;;;;;;;;5079242;28;20042;-93
2022/05/04 11:12:12;;;;;;;7.65;2.28;;;;;;;;;;5075285;28;20044;-93
2022/05/04 11:14:40;;;;;;;6.68;2.50;;;;;;;;;;5071262;28;20536;-93
2022/05/04 11:17:15;;;;;;;6.18;1.88;;;;;;;;;;5068516;28;20050;-93
2022/05/04 11:19:46;;;;;;;7.05;1.83;;;;;;;;;;5060832;28;20051;-93
2022/05/04 11:22:17;;;;;;;8.30;2.50;;;;;;;;;;5063721;28;20131;-93
2022/05/04 11:25:06;;;;;;;10.23;2.10;;;;;;;;;;5074886;28;20055;-93
2022/05/04 11:27:33;;;;;;;6.25;2.60;;;;;;;;;;5070011;28;20055;-93
2022/05/04 11:30:05;;;;;;;6.40;2.85;;;;;;;;;;5073449;28;20055;-93
2022/05/04 11:32:33;;;;;;;4.72;2.00;;;;;;;;;;5061727;28;20114;-93
2022/05/04 11:35:01;;;;;;;7.30;2.38;;;;;;;;;;5065386;28;20102;-93
2022/05/04 11:37:33;;;;;;;9.50;2.42;;;;;;;;;;5059470;28;20089;-93
2022/05/04 11:40:14;;;;;;;6.07;2.10;;;;;;;;;;5064391;28;20613;-93
2022/05/04 11:42:43;;;;;;;7.70;2.45;;;;;;;;;;5079064;28;20048;-93
2022/05/04 11:45:13;;;;;;;6.15;1.80;;;;;;;;;;5075582;28;20036;-93
2022/05/04 11:47:43;;;;;;;4.40;1.92;;;;;;;;;;5082240;28;20055;-93
2022/05/04 11:50:12;;;;;;;7.22;2.00;;;;;;;;;;5075196;28;20041;-93
2022/05/04 11:52:40;;;;;;;4.88;1.80;;;;;;;;;;5059645;28;20048;-93
2022/05/04 11:55:08;;;;;;;6.25;2.55;;;;;;;;;;5058753;28;20048;-93
2022/05/04 11:57:40;;;;;;;10.98;2.85;;;;;;;;;;5062904;28;20555;-93
2022/05/04 12:00:17;;;;;;;6.20;2.00;;;;;;;;;;5061582;28;20052;-94
2022/05/04 12:02:46;;;;;;;8.48;2.10;;;;;;;;;;5072749;28;20041;-93
2022/05/04 12:05:14;;;;;;;5.45;2.50;;;;;;;;;;5067737;28;20121;-93
2022/05/04 12:07:42;;;;;;;4.47;2.13;;;;;;;;;;5076278;28;20532;-93
2022/05/04 12:10:11;;;;;;;7.93;2.30;;;;;;;;;;5059947;28;20048;-93
2022/05/04 12:12:37;;;;;;;7.50;2.90;;;;;;;;;;5038571;28;20106;-94
2022/05/04 12:15:07;;;;;;;9.90;2.50;;;;;;;;;;5077118;28;20065;-93
2022/05/04 12:17:36;;;;;;;5.10;2.30;;;;;;;;;;5074173;28;20123;-93
2022/05/04 12:20:04;;;;;;;6.15;2.00;;;;;;;;;;5056205;28;20048;-93
2022/05/04 12:22:33;;;;;;;10.05;3.20;;;;;;;;;;5042866;28;20076;-93
2022/05/04 12:25:04;;;;;;;10.18;2.38;;;;;;;;;;5066490;28;20567;-93
2022/05/04 12:27:34;;;;;;;4.88;2.45;;;;;;;;;;5070349;28;20040;-93
2022/05/04 12:35:44;;;;;;;6.82;2.33;;;;;;;;;;5076677;28;20047;-93
2022/05/04 12:38:19;;;;;;;8.48;2.75;;;;;;;;;;5071258;28;20051;-93
2022/05/04 12:40:49;;;;;;;7.35;2.20;;;;;;;;;;5071588;28;20087;-93
2022/05/04 12:43:22;;;;;;;7.70;2.85;;;;;;;;;;5061066;28;20409;-93
2022/05/04 12:45:50;;;;;;;9.57;2.88;;;;;;;;;;5055017;28;20076;-93
2022/05/04 12:48:22;;;;;;;8.15;2.50;;;;;;;;;;5070537;28;20040;-92
2022/05/04 12:50:51;;;;;;;8.88;2.55;;;;;;;;;;5060892;28;20421;-92
2022/05/04 12:53:17;;;;;;;9.25;2.53;;;;;;;;;;5062080;28;20044;-93
2022/05/04 12:58:31;;;;;;;17.83;3.60;;;;;;;;;;5075926;28;20120;-93
2022/05/04 13:00:59;;;;;;;17.40;3.47;;;;;;;;;;5063720;28;20490;-93
2022/05/04 13:03:27;;;;;;;6.47;2.10;;;;;;;;;;5060378;28;20041;-93
2022/05/04 13:05:55;;;;;;;17.30;3.78;;;;;;;;;;5057417;28;20049;-93
2022/05/04 13:08:23;;;;;;;7.13;2.33;;;;;;;;;;5063267;28;20053;-93
2022/05/04 13:10:52;;;;;;;8.43;2.97;;;;;;;;;;5041347;28;20056;-93
2022/05/04 13:13:21;;;;;;;5.95;2.00;;;;;;;;;;5067206;28;20044;-93
2022/05/04 13:15:52;;;;;;;5.95;2.20;;;;;;;;;;5068059;28;20050;-93
2022/05/04 13:18:20;;;;;;;7.80;2.30;;;;;;;;;;5065275;28;20040;-93
2022/05/04 13:20:49;;;;;;;9.32;2.83;;;;;;;;;;5080549;28;20068;-94
2022/05/04 13:23:15;;;;;;;9.57;2.70;;;;;;;;;;5079772;28;20052;-94
2022/05/04 13:25:43;;;;;;;6.57;2.40;;;;;;;;;;5078541;28;20410;-94
2022/05/04 13:28:11;;;;;;;7.80;3.00;;;;;;;;;;5061799;28;20076;-94
2022/05/04 13:30:40;;;;;;;6.75;2.65;;;;;;;;;;5076580;28;20052;-93
2022/05/04 13:33:08;;;;;;;7.10;2.42;;;;;;;;;;5057128;28;20558;-94
2022/05/04 13:35:36;;;;;;;5.43;2.42;;;;;;;;;;5075621;28;20048;-94
2022/05/04 13:38:04;;;;;;;5.57;2.17;;;;;;;;;;5075089;28;20044;-94
2022/05/04 13:40:32;;;;;;;6.70;2.88;;;;;;;;;;5082078;28;20053;-94
2022/05/04 13:43:00;;;;;;;6.47;3.10;;;;;;;;;;5064596;28;20051;-94
2022/05/04 13:45:27;;;;;;;5.22;2.50;;;;;;;;;;5078695;28;20106;-94
2022/05/04 13:47:56;;;;;;;7.28;2.55;;;;;;;;;;5061213;28;20052;-94
2022/05/04 13:53:16;;;;;;;7.45;2.80;;;;;;;;;;5076840;28;20094;-93
2022/05/04 13:55:48;;;;;;;6.25;2.40;;;;;;;;;;5078517;28;20448;-92
2022/05/04 13:58:18;;;;;;;5.57;2.30;;;;;;;;;;5071816;28;20052;-92
2022/05/04 14:00:46;;;;;;;4.88;2.10;;;;;;;;;;5084092;28;20049;-92
2022/05/04 14:03:13;;;;;;;8.43;2.47;;;;;;;;;;5084864;28;20102;-92
2022/05/04 14:05:42;;;;;;;6.90;2.65;;;;;;;;;;5080887;28;20040;-92
2022/05/04 14:08:10;;;;;;;9.02;2.58;;;;;;;;;;5082910;28;20131;-93
2022/05/04 14:10:43;;;;;;;34.67;4.28;;;;;;;;;;5077809;28;20052;-92
2022/05/04 14:13:11;;;;;;;8.05;2.63;;;;;;;;;;5077855;28;20097;-92
2022/05/04 14:15:38;;;;;;;6.80;2.70;;;;;;;;;;5080628;28;20047;-92
2022/05/04 14:18:06;;;;;;;7.30;2.50;;;;;;;;;;5080363;28;20073;-92
2022/05/04 14:20:35;;;;;;;6.28;2.45;;;;;;;;;;5077199;28;20040;-93
2022/05/04 14:23:02;;;;;;;5.45;2.03;;;;;;;;;;5075542;28;20056;-92
2022/05/04 14:25:30;;;;;;;8.93;2.67;;;;;;;;;;5077306;28;20421;-92
2022/05/04 14:27:59;;;;;;;5.18;2.20;;;;;;;;;;5076266;28;20055;-92
2022/05/04 14:30:28;;;;;;;8.07;2.15;;;;;;;;;;5056333;28;20132;-93
2022/05/04 14:32:56;;;;;;;59.65;7.38;;;;;;;;;;5082294;28;20101;-94
2022/05/04 14:35:24;;;;;;;7.30;2.50;;;;;;;;;;5082174;28;20123;-94
2022/05/04 14:37:52;;;;;;;6.97;2.42;;;;;;;;;;5081881;28;20586;-93
2022/05/04 14:40:20;;;;;;;10.23;2.60;;;;;;;;;;5061095;28;20149;-93
2022/05/04 14:42:48;;;;;;;9.40;2.50;;;;;;;;;;5076287;28;20053;-93
2022/05/04 14:45:16;;;;;;;9.23;2.38;;;;;;;;;;5079098;28;20498;-93
2022/05/04 14:47:44;;;;;;;7.53;2.53;;;;;;;;;;5058939;28;20129;-93
2022/05/04 14:50:12;;;;;;;6.57;2.42;;;;;;;;;;5058732;28;20047;-93
2022/05/04 14:52:40;;;;;;;4.57;1.90;;;;;;;;;;5080012;28;20048;-93
2022/05/04 14:55:08;;;;;;;7.57;2.35;;;;;;;;;;5085024;28;20044;-92
2022/05/04 14:57:36;;;;;;;10.10;3.03;;;;;;;;;;5072820;28;20056;-93
2022/05/04 15:00:05;;;;;;;5.85;2.63;;;;;;;;;;5081181;28;20048;-93
2022/05/04 15:02:32;;;;;;;11.00;2.67;;;;;;;;;;5069412;28;20127;-93
2022/05/04 15:05:03;;;;;;;8.10;2.20;;;;;;;;;;5082138;28;20101;-93
2022/05/04 15:07:32;;;;;;;7.43;2.20;;;;;;;;;;5073952;28;20128;-93
2022/05/04 15:10:00;;;;;;;8.65;1.95;;;;;;;;;;5061123;28;20052;-94
2022/05/04 15:12:28;;;;;;;5.57;2.17;;;;;;;;;;5042882;28;20048;-94
2022/05/04 15:14:56;;;;;;;5.50;2.20;;;;;;;;;;5040280;28;20054;-94
2022/05/04 15:17:24;;;;;;;6.10;2.28;;;;;;;;;;5054440;28;20043;-93
2022/05/04 15:19:52;;;;;;;5.85;2.35;;;;;;;;;;5077413;28;20040;-94
2022/05/04 15:22:20;;;;;;;6.57;2.30;;;;;;;;;;5056850;28;20494;-93
2022/05/04 15:24:48;;;;;;;6.15;2.15;;;;;;;;;;5065843;28;20580;-94
2022/05/04 15:27:16;;;;;;;10.15;2.85;;;;;;;;;;5058338;28;20413;-94
2022/05/04 15:29:44;;;;;;;4.90;2.40;;;;;;;;;;5053282;28;20048;-94
2022/05/04 15:32:12;;;;;;;7.63;2.70;;;;;;;;;;5068562;28;20075;-94
2022/05/04 15:34:40;;;;;;;6.07;2.08;;;;;;;;;;5074481;28;20057;-93
2022/05/04 15:37:08;;;;;;;6.13;2.05;;;;;;;;;;5066961;28;20076;-93
2022/05/04 15:39:36;;;;;;;6.68;2.05;;;;;;;;;;5072212;28;20779;-94
2022/05/04 15:42:04;;;;;;;9.77;2.40;;;;;;;;;;5058415;28;20044;-93
2022/05/04 15:44:32;;;;;;;7.00;2.25;;;;;;;;;;5071899;28;20040;-93
2022/05/04 15:47:00;;;;;;;6.15;2.30;;;;;;;;;;5023865;28;20048;-93
2022/05/04 15:49:28;;;;;;;9.48;2.50;;;;;;;;;;5066592;28;20045;-93